createdAt,value
2022-08-11T00:02:36.130Z,62.04
2022-08-11T00:05:08.308Z,62.47
2022-08-11T00:07:43.633Z,62.70
2022-08-11T00:10:13.296Z,62.56
2022-08-11T00:12:43.042Z,62.86
2022-08-11T00:15:12.591Z,63.34
2022-08-11T00:17:42.826Z,63.64
2022-08-11T00:20:16.743Z,63.47
2022-08-11T00:22:47.680Z,63.63
2022-08-11T00:25:18.072Z,63.66
2022-08-11T00:27:47.402Z,63.95
2022-08-11T00:30:17.056Z,63.68
2022-08-11T00:32:56.509Z,63.74
2022-08-11T00:35:54.097Z,64.26
2022-08-11T00:38:18.904Z,64.43
2022-08-11T00:40:56.237Z,64.50
2022-08-11T00:43:34.679Z,64.59
2022-08-11T00:46:24.106Z,65.14
2022-08-11T00:49:12.071Z,65.25
2022-08-11T00:52:04.271Z,65.58
2022-08-11T00:55:07.557Z,65.83
2022-08-11T00:57:57.174Z,66.15
2022-08-11T01:00:27.788Z,66.15
2022-08-11T01:03:18.485Z,66.45
2022-08-11T01:06:01.907Z,66.14
2022-08-11T01:08:53.276Z,66.29
2022-08-11T01:12:10.531Z,66.40
2022-08-11T01:15:11.745Z,66.94
2022-08-11T01:18:15.610Z,67.37
2022-08-11T01:21:14.090Z,68.12
2022-08-11T01:24:36.437Z,68.49
2022-08-11T01:27:50.609Z,68.74
2022-08-11T01:30:50.499Z,69.08
2022-08-11T01:33:51.922Z,68.73
2022-08-11T01:39:50.423Z,69.34
2022-08-11T01:42:59.745Z,69.53
2022-08-11T01:45:33.463Z,69.00
2022-08-11T01:48:15.890Z,69.34
2022-08-11T01:50:58.688Z,69.60
2022-08-11T01:53:36.107Z,69.78
2022-08-11T01:56:22.730Z,70.41
2022-08-11T01:59:01.549Z,70.15
2022-08-11T02:01:40.999Z,69.82
2022-08-11T02:04:19.699Z,70.18
2022-08-11T02:06:56.928Z,70.00
2022-08-11T02:09:49.871Z,70.44
2022-08-11T02:12:37.906Z,70.95
2022-08-11T02:15:15.664Z,70.80
2022-08-11T02:17:55.121Z,71.23
2022-08-11T02:20:46.071Z,71.31
2022-08-11T02:24:06.220Z,71.45
2022-08-11T02:26:39.626Z,72.44
2022-08-11T02:29:17.081Z,72.42
2022-08-11T02:32:30.286Z,72.89
2022-08-11T02:35:11.358Z,73.30
2022-08-11T02:37:51.457Z,73.24
2022-08-11T02:40:27.543Z,73.17
2022-08-11T02:43:05.577Z,73.28
2022-08-11T02:45:48.643Z,73.32
2022-08-11T02:48:55.835Z,73.25
2022-08-11T02:51:36.258Z,73.81
2022-08-11T02:54:11.351Z,73.97
2022-08-11T02:56:47.864Z,73.99
2022-08-11T02:59:44.265Z,73.24
2022-08-11T03:02:23.700Z,73.83
2022-08-11T03:05:04.411Z,73.46
2022-08-11T03:07:43.468Z,73.53
2022-08-11T03:10:21.782Z,73.26
2022-08-11T03:13:15.656Z,73.17
2022-08-11T03:16:04.510Z,73.43
2022-08-11T03:18:42.303Z,73.00
2022-08-11T03:21:17.381Z,73.05
2022-08-11T03:23:56.346Z,73.43
2022-08-11T03:26:29.650Z,73.17
2022-08-11T03:29:07.006Z,73.26
2022-08-11T03:31:38.635Z,73.61
2022-08-11T03:34:15.141Z,74.00
2022-08-11T03:37:39.257Z,73.80
2022-08-11T03:40:40.447Z,73.68
2022-08-11T03:43:18.336Z,74.25
2022-08-11T03:45:57.445Z,74.83
2022-08-11T03:48:39.548Z,75.06
2022-08-11T03:51:19.922Z,74.27
2022-08-11T03:54:09.545Z,74.83
2022-08-11T03:57:21.239Z,75.10
2022-08-11T04:00:20.484Z,75.13
2022-08-11T04:03:23.751Z,75.31
2022-08-11T04:06:38.383Z,75.59
2022-08-11T04:10:03.245Z,75.18
2022-08-11T04:13:18.861Z,75.72
2022-08-11T04:16:23.670Z,76.08
2022-08-11T04:19:24.826Z,75.78
2022-08-11T04:22:20.057Z,75.98
2022-08-11T04:25:22.456Z,76.37
2022-08-11T04:28:31.436Z,76.15
2022-08-11T04:31:10.186Z,76.61
2022-08-11T04:34:16.800Z,76.50
2022-08-11T04:37:35.005Z,76.60
2022-08-11T04:40:53.850Z,77.17
2022-08-11T04:44:02.645Z,76.90
2022-08-11T04:46:59.397Z,76.09
2022-08-11T04:49:59.281Z,75.83
2022-08-11T04:53:05.532Z,76.02
2022-08-11T04:56:21.060Z,75.62
2022-08-11T04:59:19.409Z,76.04
2022-08-11T05:02:17.302Z,76.33
2022-08-11T05:05:27.441Z,76.42
2022-08-11T05:08:50.941Z,76.22
2022-08-11T05:11:46.099Z,75.42
2022-08-11T05:14:54.846Z,75.13
2022-08-11T05:17:55.170Z,74.47
2022-08-11T05:20:43.782Z,74.37
2022-08-11T05:23:30.516Z,74.60
2022-08-11T05:26:46.421Z,73.67
2022-08-11T05:29:45.511Z,73.29
2022-08-11T05:32:34.829Z,72.90
2022-08-11T05:35:07.635Z,72.48
2022-08-11T05:37:42.331Z,72.91
2022-08-11T05:40:30.397Z,71.87
2022-08-11T05:43:19.427Z,71.12
2022-08-11T05:46:15.748Z,70.36
2022-08-11T05:49:02.316Z,70.58
2022-08-11T05:51:55.473Z,69.50
2022-08-11T05:54:46.207Z,69.86
2022-08-11T05:57:48.559Z,68.75
2022-08-11T06:00:12.431Z,68.84
2022-08-11T06:02:44.677Z,68.28
2022-08-11T06:05:14.305Z,68.28
2022-08-11T06:07:48.373Z,68.50
2022-08-11T06:10:28.192Z,66.69
2022-08-11T06:12:56.973Z,66.99
2022-08-11T06:15:27.571Z,66.30
2022-08-11T06:17:56.959Z,66.24
2022-08-11T06:20:26.488Z,66.81
2022-08-11T06:22:59.732Z,67.10
2022-08-11T06:25:33.043Z,64.60
2022-08-11T06:28:01.770Z,64.46
2022-08-11T06:30:40.783Z,63.42
2022-08-11T06:33:12.553Z,62.97
2022-08-11T06:35:49.676Z,62.02
2022-08-11T06:38:32.269Z,63.04
2022-08-11T06:41:22.447Z,61.35
2022-08-11T06:43:56.346Z,61.62
2022-08-11T06:46:32.206Z,61.14
2022-08-11T06:49:03.948Z,61.14
2022-08-11T06:51:32.494Z,59.65
2022-08-11T06:54:05.686Z,59.77
2022-08-11T06:57:18.588Z,58.02
2022-08-11T07:00:01.877Z,49.41
2022-08-11T07:02:34.980Z,43.39
2022-08-11T07:05:08.893Z,37.40
2022-08-11T07:08:33.727Z,34.43
2022-08-11T07:11:39.780Z,32.75
2022-08-11T07:14:26.608Z,33.66
2022-08-11T07:16:55.430Z,32.73
2022-08-11T07:19:46.022Z,31.67
2022-08-11T07:22:32.953Z,30.32
2022-08-11T07:25:21.720Z,29.57
2022-08-11T07:28:15.045Z,28.92
2022-08-11T07:30:44.054Z,26.91
2022-08-11T07:34:04.867Z,27.56
2022-08-11T07:36:06.634Z,25.93
2022-08-11T07:38:47.520Z,26.93
2022-08-11T07:41:17.438Z,25.94
2022-08-11T07:43:49.756Z,24.87
2022-08-11T07:46:35.873Z,25.17
2022-08-11T07:49:23.120Z,24.01
2022-08-11T07:52:11.785Z,22.57
2022-08-11T07:54:41.672Z,23.36
2022-08-11T07:58:14.647Z,22.74
2022-08-11T08:00:35.526Z,23.44
2022-08-11T08:03:22.345Z,22.31
2022-08-11T08:06:35.487Z,21.85
2022-08-11T08:09:15.990Z,21.64
2022-08-11T08:12:03.647Z,22.00
2022-08-11T08:14:49.311Z,22.12
2022-08-11T08:17:35.530Z,20.83
2022-08-11T08:20:03.946Z,20.34
2022-08-11T08:22:39.073Z,20.37
2022-08-11T08:25:10.489Z,20.61
2022-08-11T08:27:40.340Z,20.66
2022-08-11T08:30:27.204Z,20.69
2022-08-11T08:32:57.808Z,20.11
2022-08-11T08:35:29.425Z,21.42
2022-08-11T08:38:00.919Z,21.41
2022-08-11T08:40:30.589Z,20.82
2022-08-11T08:43:03.224Z,20.53
2022-08-11T08:45:37.671Z,20.85
2022-08-11T08:48:15.977Z,20.42
2022-08-11T08:51:11.128Z,19.80
2022-08-11T08:53:52.460Z,20.34
2022-08-11T08:56:29.085Z,18.85
2022-08-11T08:59:00.568Z,19.52
2022-08-11T09:01:32.334Z,20.16
2022-08-11T09:04:06.690Z,19.87
2022-08-11T09:06:41.180Z,19.71
2022-08-11T09:09:12.191Z,19.74
2022-08-11T09:11:53.533Z,20.19
2022-08-11T09:14:24.358Z,19.43
2022-08-11T09:16:54.323Z,19.54
2022-08-11T09:19:22.872Z,18.69
2022-08-11T09:22:08.871Z,18.62
2022-08-11T09:24:51.925Z,19.31
2022-08-11T09:27:22.505Z,19.52
2022-08-11T09:29:51.856Z,19.10
2022-08-11T09:32:21.731Z,18.80
2022-08-11T09:34:54.150Z,20.12
2022-08-11T09:37:54.923Z,19.63
2022-08-11T09:40:33.804Z,20.69
2022-08-11T09:43:23.980Z,20.39
2022-08-11T09:45:54.138Z,21.39
2022-08-11T09:48:24.675Z,21.56
2022-08-11T09:50:55.918Z,22.85
2022-08-11T09:53:36.167Z,23.59
2022-08-11T09:56:30.563Z,23.92
2022-08-11T09:59:00.956Z,25.38
2022-08-11T10:01:33.146Z,25.48
2022-08-11T10:04:07.541Z,25.67
2022-08-11T10:06:56.430Z,26.36
2022-08-11T10:09:26.129Z,26.83
2022-08-11T10:11:58.710Z,27.21
2022-08-11T10:14:48.911Z,26.73
2022-08-11T10:17:20.113Z,26.79
2022-08-11T10:20:04.059Z,27.07
2022-08-11T10:22:52.873Z,26.26
2022-08-11T10:25:39.797Z,26.27
2022-08-11T10:28:29.010Z,26.24
2022-08-11T10:31:18.341Z,25.70
2022-08-11T10:34:06.839Z,25.95
2022-08-11T10:36:45.049Z,26.77
2022-08-11T10:39:18.016Z,26.97
2022-08-11T10:42:09.622Z,26.02
2022-08-11T10:44:43.328Z,26.88
2022-08-11T10:47:33.060Z,27.97
2022-08-11T10:50:19.326Z,28.16
2022-08-11T10:53:08.443Z,27.71
2022-08-11T10:55:54.773Z,27.78
2022-08-11T10:58:44.647Z,28.43
2022-08-11T11:01:13.483Z,28.87
2022-08-11T11:03:44.126Z,28.43
2022-08-11T11:06:28.237Z,27.87
2022-08-11T11:09:05.372Z,27.17
2022-08-11T11:11:55.793Z,27.45
2022-08-11T11:14:46.374Z,27.46
2022-08-11T11:17:38.932Z,26.63
2022-08-11T11:20:10.072Z,27.08
2022-08-11T11:23:04.884Z,27.97
2022-08-11T11:26:07.514Z,29.37
2022-08-11T11:28:58.003Z,28.28
2022-08-11T11:31:37.192Z,28.85
2022-08-11T11:34:28.143Z,29.03
2022-08-11T11:36:58.672Z,28.99
2022-08-11T11:39:28.521Z,28.01
2022-08-11T11:41:58.386Z,29.13
2022-08-11T11:44:27.150Z,28.53
2022-08-11T11:46:56.794Z,27.88
2022-08-11T11:49:28.213Z,27.64
2022-08-11T11:51:59.187Z,28.60
2022-08-11T11:54:28.803Z,28.47
2022-08-11T11:56:58.666Z,28.71
2022-08-11T11:59:47.183Z,28.15
2022-08-11T12:02:17.438Z,28.28
2022-08-11T12:04:48.801Z,29.40
2022-08-11T12:07:35.976Z,29.46
2022-08-11T12:10:04.700Z,28.37
2022-08-11T12:12:50.828Z,28.51
2022-08-11T12:15:19.896Z,28.32
2022-08-11T12:18:08.565Z,28.62
2022-08-11T12:20:36.711Z,27.95
2022-08-11T12:23:23.838Z,27.91
2022-08-11T12:26:26.294Z,28.16
2022-08-11T12:28:59.012Z,28.10
2022-08-11T12:31:27.230Z,29.05
2022-08-11T12:34:00.799Z,28.75
2022-08-11T12:36:29.877Z,28.71
2022-08-11T12:38:59.761Z,28.68
2022-08-11T12:41:53.445Z,28.07
2022-08-11T12:44:43.782Z,28.26
2022-08-11T12:47:12.504Z,28.25
2022-08-11T12:50:05.389Z,27.63
2022-08-11T12:52:37.431Z,27.50
2022-08-11T12:55:13.790Z,27.48
2022-08-11T12:58:04.094Z,27.28
2022-08-11T13:00:51.034Z,26.79
2022-08-11T13:03:38.934Z,26.00
2022-08-11T13:06:08.768Z,26.32
2022-08-11T13:08:40.865Z,26.29
2022-08-11T13:11:56.221Z,27.22
2022-08-11T13:14:17.898Z,27.50
2022-08-11T13:17:04.843Z,27.27
2022-08-11T13:19:34.527Z,27.10
2022-08-11T13:22:07.534Z,27.38
2022-08-11T13:24:37.211Z,27.58
2022-08-11T13:27:07.660Z,27.48
2022-08-11T13:29:36.795Z,27.94
2022-08-11T13:32:04.547Z,27.71
2022-08-11T13:34:33.408Z,27.58
2022-08-11T13:37:04.274Z,27.85
2022-08-11T13:39:34.643Z,28.38
2022-08-11T13:42:04.206Z,28.10
2022-08-11T13:44:37.924Z,27.68
2022-08-11T13:47:08.302Z,28.21
2022-08-11T13:49:39.983Z,28.46
2022-08-11T13:52:14.027Z,28.47
2022-08-11T13:54:43.644Z,28.36
2022-08-11T13:58:06.323Z,28.58
2022-08-11T14:00:22.538Z,28.76
2022-08-11T14:02:57.998Z,27.74
2022-08-11T14:05:29.478Z,27.56
2022-08-11T14:08:02.602Z,27.63
2022-08-11T14:10:34.274Z,27.79
2022-08-11T14:13:21.225Z,27.63
2022-08-11T14:15:52.513Z,27.44
2022-08-11T14:18:23.709Z,28.29
2022-08-11T14:21:14.998Z,28.15
2022-08-11T14:23:45.369Z,28.07
2022-08-11T14:26:27.031Z,28.44
2022-08-11T14:29:02.199Z,28.04
2022-08-11T14:31:34.530Z,28.83
2022-08-11T14:34:05.660Z,28.34
2022-08-11T14:36:38.112Z,28.98
2022-08-11T14:39:11.663Z,28.80
2022-08-11T14:42:12.087Z,28.68
2022-08-11T14:45:02.202Z,28.48
2022-08-11T14:47:35.969Z,27.81
2022-08-11T14:50:10.898Z,27.99
2022-08-11T14:52:45.012Z,28.03
2022-08-11T14:55:32.865Z,27.77
2022-08-11T14:58:02.265Z,28.00
2022-08-11T15:00:31.115Z,28.01
2022-08-11T15:03:14.013Z,28.47
2022-08-11T15:05:56.030Z,29.04
2022-08-11T15:08:42.446Z,29.68
2022-08-11T15:11:32.493Z,30.15
2022-08-11T15:14:02.471Z,30.21
2022-08-11T15:16:48.812Z,30.40
2022-08-11T15:19:21.254Z,30.53
2022-08-11T15:22:07.154Z,30.59
2022-08-11T15:24:36.544Z,30.37
2022-08-11T15:27:24.099Z,30.60
2022-08-11T15:30:20.224Z,30.34
2022-08-11T15:33:17.817Z,30.47
2022-08-11T15:36:05.280Z,30.66
2022-08-11T15:38:37.244Z,31.00
2022-08-11T15:41:25.121Z,30.73
2022-08-11T15:44:12.966Z,31.10
2022-08-11T15:46:43.371Z,30.60
2022-08-11T15:49:21.881Z,30.32
2022-08-11T15:52:01.873Z,31.05
2022-08-11T15:54:33.149Z,30.79
2022-08-11T15:57:03.349Z,30.60
2022-08-11T15:59:51.001Z,30.75
2022-08-11T16:02:40.050Z,30.99
2022-08-11T16:05:14.425Z,30.82
2022-08-11T16:08:05.268Z,30.71
2022-08-11T16:10:35.753Z,30.75
2022-08-11T16:13:19.821Z,31.19
2022-08-11T16:16:08.591Z,30.99
2022-08-11T16:18:42.840Z,31.19
2022-08-11T16:21:34.147Z,31.30
2022-08-11T16:24:06.072Z,31.09
2022-08-11T16:27:08.488Z,31.39
2022-08-11T16:29:26.430Z,31.17
2022-08-11T16:32:14.527Z,31.36
2022-08-11T16:35:02.455Z,31.69
2022-08-11T16:37:49.932Z,31.72
2022-08-11T16:40:22.642Z,31.75
2022-08-11T16:43:11.670Z,31.66
2022-08-11T16:45:59.657Z,31.90
2022-08-11T16:48:35.134Z,32.12
2022-08-11T16:51:06.646Z,32.13
2022-08-11T16:54:03.359Z,32.52
2022-08-11T16:56:29.624Z,32.29
2022-08-11T16:59:16.670Z,32.18
2022-08-11T17:01:49.214Z,32.46
2022-08-11T17:04:46.153Z,32.65
2022-08-11T17:07:41.944Z,32.88
2022-08-11T17:10:50.806Z,32.96
2022-08-11T17:13:25.510Z,33.40
2022-08-11T17:16:11.935Z,33.35
2022-08-11T17:18:46.955Z,33.55
2022-08-11T17:21:21.457Z,33.52
2022-08-11T17:23:55.376Z,33.51
2022-08-11T17:26:27.569Z,33.83
2022-08-11T17:29:00.453Z,33.68
2022-08-11T17:31:47.639Z,33.66
2022-08-11T17:34:33.874Z,33.92
2022-08-11T17:37:02.858Z,34.02
2022-08-11T17:39:32.781Z,33.96
2022-08-11T17:42:20.553Z,34.06
2022-08-11T17:45:08.044Z,34.10
2022-08-11T17:47:54.259Z,33.43
2022-08-11T17:50:23.281Z,33.32
2022-08-11T17:53:09.962Z,33.11
2022-08-11T17:55:58.049Z,32.92
2022-08-11T17:58:47.482Z,32.92
2022-08-11T18:01:18.747Z,32.62
2022-08-11T18:03:57.679Z,32.78
2022-08-11T18:06:33.561Z,32.68
2022-08-11T18:09:22.684Z,32.66
2022-08-11T18:12:11.906Z,33.18
2022-08-11T18:14:59.157Z,33.41
2022-08-11T18:17:46.097Z,33.75
2022-08-11T18:20:31.550Z,33.92
2022-08-11T18:23:20.378Z,34.03
2022-08-11T18:26:07.885Z,34.29
2022-08-11T18:28:58.356Z,34.97
2022-08-11T18:31:45.215Z,35.22
2022-08-11T18:34:39.285Z,35.88
2022-08-11T18:37:29.515Z,35.93
2022-08-11T18:40:19.249Z,36.72
2022-08-11T18:43:07.034Z,37.00
2022-08-11T18:46:05.401Z,36.97
2022-08-11T18:48:54.950Z,37.38
2022-08-11T18:51:42.609Z,37.64
2022-08-11T18:54:30.541Z,37.77
2022-08-11T18:57:20.577Z,37.89
2022-08-11T19:00:07.273Z,37.92
2022-08-11T19:02:55.939Z,38.23
2022-08-11T19:06:35.915Z,38.13
2022-08-11T19:08:55.040Z,38.09
2022-08-11T19:11:43.641Z,38.24
2022-08-11T19:14:31.063Z,38.40
2022-08-11T19:17:44.080Z,38.55
2022-08-11T19:20:28.158Z,38.57
2022-08-11T19:23:14.840Z,38.56
2022-08-11T19:26:04.146Z,38.55
2022-08-11T19:28:51.925Z,38.95
2022-08-11T19:31:43.816Z,38.99
2022-08-11T19:34:32.383Z,39.43
2022-08-11T19:37:23.520Z,39.28
2022-08-11T19:40:10.303Z,39.07
2022-08-11T19:43:01.767Z,39.07
2022-08-11T19:45:52.152Z,39.26
2022-08-11T19:48:45.390Z,39.21
2022-08-11T19:51:32.249Z,39.46
2022-08-11T19:54:19.697Z,39.34
2022-08-11T19:57:06.767Z,39.55
2022-08-11T19:59:58.397Z,39.89
2022-08-11T20:02:44.045Z,39.92
2022-08-11T20:05:29.856Z,39.93
2022-08-11T20:08:16.498Z,40.44
2022-08-11T20:11:06.320Z,40.54
2022-08-11T20:13:53.773Z,40.75
2022-08-11T20:16:42.257Z,40.77
2022-08-11T20:19:56.361Z,41.05
2022-08-11T20:22:36.393Z,40.99
2022-08-11T20:25:24.287Z,41.36
2022-08-11T20:28:11.527Z,41.68
2022-08-11T20:30:57.689Z,41.84
2022-08-11T20:33:44.917Z,42.35
2022-08-11T20:36:32.181Z,42.48
2022-08-11T20:39:20.124Z,42.75
2022-08-11T20:42:07.572Z,43.00
2022-08-11T20:44:55.901Z,43.02
2022-08-11T20:47:56.400Z,43.08
2022-08-11T20:50:46.990Z,43.67
2022-08-11T20:53:35.872Z,43.72
2022-08-11T20:59:43.697Z,44.08
2022-08-11T21:02:40.326Z,44.34
2022-08-11T21:08:40.477Z,44.70
2022-08-11T21:11:28.564Z,44.84
2022-08-11T21:14:15.270Z,44.91
2022-08-11T21:17:27.216Z,45.25
2022-08-11T21:20:17.059Z,45.88
2022-08-11T21:23:10.031Z,46.29
2022-08-11T21:26:04.840Z,46.11
2022-08-11T21:28:50.723Z,46.29
2022-08-11T21:31:38.153Z,46.89
2022-08-11T21:34:27.413Z,46.81
2022-08-11T21:37:13.101Z,47.81
2022-08-11T21:40:00.211Z,47.73
2022-08-11T21:42:50.683Z,48.23
2022-08-11T21:45:37.594Z,48.46
2022-08-11T21:48:25.275Z,48.46
2022-08-11T21:51:10.957Z,49.20
2022-08-11T21:53:57.565Z,48.78
2022-08-11T21:56:45.466Z,49.13
2022-08-11T21:59:38.546Z,50.16
2022-08-11T22:02:24.414Z,50.01
2022-08-11T22:05:10.566Z,50.15
2022-08-11T22:07:58.411Z,50.57
2022-08-11T22:10:47.807Z,50.92
2022-08-11T22:13:33.662Z,51.21
2022-08-11T22:16:20.812Z,51.29
2022-08-11T22:19:09.573Z,51.29
2022-08-11T22:22:04.067Z,51.66
2022-08-11T22:24:52.245Z,51.99
2022-08-11T22:27:38.703Z,52.13
2022-08-11T22:30:25.526Z,52.65
2022-08-11T22:33:15.165Z,52.42
2022-08-11T22:36:06.181Z,52.80
2022-08-11T22:38:53.657Z,52.80
2022-08-11T22:41:40.180Z,52.84
2022-08-11T22:44:26.545Z,52.72
2022-08-11T22:47:15.291Z,52.96
2022-08-11T22:50:12.133Z,53.24
2022-08-11T22:52:59.968Z,53.16
2022-08-11T22:55:47.554Z,53.39
2022-08-11T22:58:37.773Z,53.33
2022-08-11T23:01:24.056Z,53.35
2022-08-11T23:04:10.935Z,53.29
2022-08-11T23:07:02.409Z,53.67
2022-08-11T23:09:48.340Z,54.48
2022-08-11T23:12:34.431Z,54.63
2022-08-11T23:15:20.230Z,54.53
2022-08-11T23:18:05.876Z,54.69
2022-08-11T23:20:57.014Z,54.76
2022-08-11T23:23:47.293Z,54.50
2022-08-11T23:26:34.661Z,54.78
2022-08-11T23:29:22.435Z,54.83
2022-08-11T23:32:11.120Z,55.31
2022-08-11T23:35:04.301Z,55.43
2022-08-11T23:37:50.476Z,55.73
2022-08-11T23:40:37.460Z,55.70
2022-08-11T23:43:23.350Z,55.81
2022-08-11T23:46:08.956Z,55.97
2022-08-11T23:48:56.306Z,56.42
2022-08-11T23:51:46.288Z,56.64
2022-08-11T23:54:37.281Z,56.74
2022-08-11T23:57:25.030Z,56.86
